Stoneham, Canada
Current Conditions -  °F | °C
As of 11:00 AM on Thursday 29 Jan 2015 (Local Time) from CYOY Reporting Station
Broken Clouds Broken Clouds  
Wind Chill: 14°   Ceiling: 25000
Heat Index: 14°   Visibility: 15mi
Dew Point: -2°   Wind: 2mph
Humidity: 49%   Direction: 170°S
Pressure: 30.21"   Gusts: NA
Location:  47°N, 71.37°W
Report Text: CYOY 291600Z 17002KT 15SM BKN250 M10/M19 A3021 RMK CI2 SLP248
Loading
Personal Weather Stations






























Interactive Weather Map New forecast layout! Learn more

10-Day Weather Forecast

Advertisements
Track Severe Weather on mobile